createdAt,value
2022-07-27T00:00:23.912Z,14.80
2022-07-27T00:01:27.279Z,14.80
2022-07-27T00:02:29.725Z,14.80
2022-07-27T00:03:34.508Z,14.80
2022-07-27T00:04:40.921Z,14.80
2022-07-27T00:05:45.734Z,14.80
2022-07-27T00:06:49.539Z,14.80
2022-07-27T00:07:52.183Z,14.80
2022-07-27T00:08:55.536Z,14.80
2022-07-27T00:09:57.817Z,14.80
2022-07-27T00:11:01.095Z,14.70
2022-07-27T00:12:07.364Z,14.70
2022-07-27T00:13:09.759Z,14.70
2022-07-27T00:14:13.154Z,14.70
2022-07-27T00:15:15.470Z,14.70
2022-07-27T00:16:18.858Z,14.70
2022-07-27T00:17:23.941Z,14.70
2022-07-27T00:18:27.525Z,14.70
2022-07-27T00:19:31.369Z,14.60
2022-07-27T00:20:34.785Z,14.60
2022-07-27T00:21:37.644Z,14.60
2022-07-27T00:22:48.354Z,14.60
2022-07-27T00:23:51.952Z,14.60
2022-07-27T00:24:54.724Z,14.60
2022-07-27T00:25:58.854Z,14.60
2022-07-27T00:27:01.307Z,14.60
2022-07-27T00:28:05.578Z,14.60
2022-07-27T00:29:09.252Z,14.60
2022-07-27T00:30:13.343Z,14.60
2022-07-27T00:31:17.075Z,14.60
2022-07-27T00:32:19.447Z,14.50
2022-07-27T00:33:24.952Z,14.50
2022-07-27T00:34:27.467Z,14.50
2022-07-27T00:35:33.059Z,14.50
2022-07-27T00:36:36.657Z,14.50
2022-07-27T00:37:42.349Z,14.50
2022-07-27T00:38:44.746Z,14.50
2022-07-27T00:39:48.144Z,14.50
2022-07-27T00:40:54.052Z,14.50
2022-07-27T00:41:59.035Z,14.40
2022-07-27T00:43:02.308Z,14.40
2022-07-27T00:44:06.804Z,14.40
2022-07-27T00:45:11.453Z,14.40
2022-07-27T00:46:16.458Z,14.40
2022-07-27T00:47:19.988Z,14.40
2022-07-27T00:48:22.347Z,14.40
2022-07-27T00:49:28.478Z,14.40
2022-07-27T00:50:32.197Z,14.40
2022-07-27T00:51:35.688Z,14.40
2022-07-27T00:52:38.963Z,14.40
2022-07-27T00:53:42.545Z,14.40
2022-07-27T00:54:48.837Z,14.40
2022-07-27T00:55:52.253Z,14.40
2022-07-27T00:56:54.925Z,14.40
2022-07-27T00:57:59.655Z,14.40
2022-07-27T00:59:02.268Z,14.40
2022-07-27T01:00:07.842Z,14.40
2022-07-27T01:01:10.250Z,14.40
2022-07-27T01:02:17.267Z,14.40
2022-07-27T01:03:23.190Z,14.40
2022-07-27T01:04:33.199Z,14.40
2022-07-27T01:05:42.714Z,14.40
2022-07-27T01:06:49.626Z,14.40
2022-07-27T01:07:52.129Z,14.50
2022-07-27T01:09:13.923Z,14.40
2022-07-27T01:10:19.979Z,14.40
2022-07-27T01:11:22.326Z,14.50
2022-07-27T01:12:30.334Z,14.50
2022-07-27T01:13:32.805Z,14.50
2022-07-27T01:14:36.701Z,14.50
2022-07-27T01:15:40.235Z,14.50
2022-07-27T01:16:43.419Z,14.50
2022-07-27T01:17:48.966Z,14.50
2022-07-27T01:18:53.873Z,14.50
2022-07-27T01:19:58.006Z,14.50
2022-07-27T01:21:06.296Z,14.50
2022-07-27T01:22:13.488Z,14.50
2022-07-27T01:23:15.964Z,14.50
2022-07-27T01:24:19.224Z,14.50
2022-07-27T01:25:23.997Z,14.50
2022-07-27T01:26:27.680Z,14.50
2022-07-27T01:27:30.428Z,14.60
2022-07-27T01:28:33.841Z,14.60
2022-07-27T01:29:37.386Z,14.60
2022-07-27T01:30:40.645Z,14.60
2022-07-27T01:31:43.082Z,14.60
2022-07-27T01:32:46.439Z,14.60
2022-07-27T01:33:53.039Z,14.60
2022-07-27T01:34:55.396Z,14.60
2022-07-27T01:35:59.179Z,14.70
2022-07-27T01:37:01.999Z,14.70
2022-07-27T01:38:12.342Z,14.70
2022-07-27T01:39:19.077Z,14.70
2022-07-27T01:40:22.735Z,14.70
2022-07-27T01:41:25.050Z,14.70
2022-07-27T01:42:28.276Z,14.70
2022-07-27T01:43:30.580Z,14.70
2022-07-27T01:44:33.876Z,14.70
2022-07-27T01:45:36.418Z,14.70
2022-07-27T01:46:39.868Z,14.70
2022-07-27T01:47:43.200Z,14.80
2022-07-27T01:48:48.047Z,14.80
2022-07-27T01:49:53.008Z,14.70
2022-07-27T01:50:56.387Z,14.80
2022-07-27T01:51:59.812Z,14.70
2022-07-27T01:53:03.071Z,14.70
2022-07-27T01:54:09.168Z,14.70
2022-07-27T01:55:13.300Z,14.70
2022-07-27T01:56:16.428Z,14.60
2022-07-27T01:57:19.851Z,14.60
2022-07-27T01:58:24.344Z,14.60
2022-07-27T01:59:27.575Z,14.60
2022-07-27T02:00:30.862Z,14.60
2022-07-27T02:01:34.512Z,14.60
2022-07-27T02:02:37.105Z,14.60
2022-07-27T02:03:43.128Z,14.60
2022-07-27T02:04:45.591Z,14.50
2022-07-27T02:05:49.070Z,14.50
2022-07-27T02:06:51.548Z,14.50
2022-07-27T02:07:54.917Z,14.50
2022-07-27T02:08:59.624Z,14.50
2022-07-27T02:10:05.343Z,14.50
2022-07-27T02:11:26.560Z,14.40
2022-07-27T02:12:37.962Z,14.40
2022-07-27T02:13:44.729Z,14.40
2022-07-27T02:14:47.097Z,14.40
2022-07-27T02:15:50.543Z,14.40
2022-07-27T02:16:57.124Z,14.40
2022-07-27T02:18:00.360Z,14.40
2022-07-27T02:19:05.316Z,14.40
2022-07-27T02:20:12.969Z,14.40
2022-07-27T02:21:15.351Z,14.40
2022-07-27T02:22:19.075Z,14.40
2022-07-27T02:23:23.771Z,14.40
2022-07-27T02:24:27.016Z,14.40
2022-07-27T02:25:31.347Z,14.40
2022-07-27T02:26:36.677Z,14.40
2022-07-27T02:27:40.330Z,14.40
2022-07-27T02:28:43.676Z,14.40
2022-07-27T02:29:48.274Z,14.40
2022-07-27T02:30:51.587Z,14.40
2022-07-27T02:31:54.001Z,14.40
2022-07-27T02:32:57.445Z,14.40
2022-07-27T02:34:00.146Z,14.40
2022-07-27T02:35:18.384Z,14.40
2022-07-27T02:36:24.868Z,14.40
2022-07-27T02:37:27.323Z,14.40
2022-07-27T02:38:30.656Z,14.40
2022-07-27T02:39:32.914Z,14.40
2022-07-27T02:40:37.755Z,14.40
2022-07-27T02:41:40.088Z,14.40
2022-07-27T02:42:43.425Z,14.40
2022-07-27T02:43:45.817Z,14.40
2022-07-27T02:44:49.373Z,14.40
2022-07-27T02:45:52.258Z,14.40
2022-07-27T02:46:55.865Z,14.40
2022-07-27T02:47:59.092Z,14.50
2022-07-27T02:49:02.425Z,14.50
2022-07-27T02:50:07.771Z,14.50
2022-07-27T02:51:11.109Z,14.50
2022-07-27T02:52:13.446Z,14.50
2022-07-27T02:53:16.694Z,14.50
2022-07-27T02:54:22.019Z,14.50
2022-07-27T02:55:25.393Z,14.50
2022-07-27T02:56:29.143Z,14.50
2022-07-27T02:57:34.413Z,14.50
2022-07-27T02:58:38.493Z,14.50
2022-07-27T02:59:41.826Z,14.50
2022-07-27T03:00:44.297Z,14.50
2022-07-27T03:01:49.032Z,14.50
2022-07-27T03:02:51.905Z,14.60
2022-07-27T03:03:57.764Z,14.60
2022-07-27T03:05:00.044Z,14.60
2022-07-27T03:06:03.600Z,14.60
2022-07-27T03:07:06.760Z,14.60
2022-07-27T03:08:12.700Z,14.60
2022-07-27T03:09:15.382Z,14.60
2022-07-27T03:10:19.037Z,14.60
2022-07-27T03:11:23.408Z,14.60
2022-07-27T03:12:28.205Z,14.70
2022-07-27T03:13:32.124Z,14.70
2022-07-27T03:14:34.624Z,14.70
2022-07-27T03:15:37.921Z,14.70
2022-07-27T03:16:40.167Z,14.70
2022-07-27T03:17:43.646Z,14.70
2022-07-27T03:18:49.930Z,14.70
2022-07-27T03:19:53.244Z,14.70
2022-07-27T03:20:55.542Z,14.70
2022-07-27T03:21:59.169Z,14.80
2022-07-27T03:23:02.570Z,14.80
2022-07-27T03:24:05.796Z,14.80
2022-07-27T03:25:10.238Z,14.80
2022-07-27T03:26:12.481Z,14.80
2022-07-27T03:27:15.758Z,14.80
2022-07-27T03:28:19.634Z,14.80
2022-07-27T03:29:22.996Z,14.80
2022-07-27T03:30:25.212Z,14.80
2022-07-27T03:31:28.754Z,14.80
2022-07-27T03:32:31.324Z,14.80
2022-07-27T03:33:36.820Z,14.80
2022-07-27T03:34:39.124Z,14.80
2022-07-27T03:35:42.542Z,14.80
2022-07-27T03:36:46.454Z,14.90
2022-07-27T03:37:48.800Z,14.90
2022-07-27T03:38:52.549Z,14.90
2022-07-27T03:39:54.920Z,14.90
2022-07-27T03:40:58.197Z,14.90
2022-07-27T03:42:00.466Z,14.90
2022-07-27T03:43:03.725Z,14.90
2022-07-27T03:44:07.428Z,14.90
2022-07-27T03:45:11.846Z,14.90
2022-07-27T03:46:14.515Z,14.90
2022-07-27T03:47:17.850Z,14.90
2022-07-27T03:48:20.117Z,14.90
2022-07-27T03:49:23.599Z,14.90
2022-07-27T03:50:28.189Z,14.90
2022-07-27T03:51:31.625Z,14.90
2022-07-27T03:52:34.094Z,14.90
2022-07-27T03:53:37.556Z,14.90
2022-07-27T03:54:40.436Z,14.90
2022-07-27T03:55:46.769Z,14.90
2022-07-27T03:56:49.098Z,14.90
2022-07-27T03:57:52.534Z,14.90
2022-07-27T03:58:54.760Z,15.00
2022-07-27T03:59:59.448Z,14.90
2022-07-27T04:01:02.179Z,14.90
2022-07-27T04:02:05.948Z,15.00
2022-07-27T04:03:08.312Z,15.00
2022-07-27T04:04:14.018Z,15.00
2022-07-27T04:05:16.721Z,15.00
2022-07-27T04:06:22.007Z,15.00
2022-07-27T04:07:26.602Z,15.00
2022-07-27T04:08:30.116Z,15.00
2022-07-27T04:09:34.330Z,15.00
2022-07-27T04:10:36.671Z,15.00
2022-07-27T04:11:50.474Z,15.00
2022-07-27T04:12:53.775Z,15.00
2022-07-27T04:13:57.355Z,15.00
2022-07-27T04:15:01.026Z,15.00
2022-07-27T04:16:04.398Z,15.10
2022-07-27T04:17:07.402Z,15.10
2022-07-27T04:18:10.677Z,15.10
2022-07-27T04:19:13.678Z,15.10
2022-07-27T04:20:17.767Z,15.10
2022-07-27T04:21:20.077Z,15.10
2022-07-27T04:22:23.290Z,15.10
2022-07-27T04:23:25.588Z,15.10
2022-07-27T04:24:28.963Z,15.10
2022-07-27T04:25:31.969Z,15.10
2022-07-27T04:26:35.260Z,15.10
2022-07-27T04:27:40.531Z,15.20
2022-07-27T04:28:43.826Z,15.20
2022-07-27T04:29:48.932Z,15.20
2022-07-27T04:30:53.967Z,15.20
2022-07-27T04:31:56.569Z,15.20
2022-07-27T04:32:59.847Z,15.20
2022-07-27T04:34:04.459Z,15.20
2022-07-27T04:35:09.399Z,15.20
2022-07-27T04:36:11.703Z,15.20
2022-07-27T04:37:15.107Z,15.20
2022-07-27T04:38:17.671Z,15.20
2022-07-27T04:39:23.749Z,15.20
2022-07-27T04:40:26.320Z,15.20
2022-07-27T04:41:30.547Z,15.30
2022-07-27T04:42:33.097Z,15.30
2022-07-27T04:43:36.561Z,15.30
2022-07-27T04:44:40.009Z,15.30
2022-07-27T04:45:42.633Z,15.40
2022-07-27T04:46:52.375Z,15.40
2022-07-27T04:47:54.826Z,15.40
2022-07-27T04:48:58.483Z,15.50
2022-07-27T04:50:00.838Z,15.60
2022-07-27T04:51:05.273Z,15.60
2022-07-27T04:52:07.561Z,15.60
2022-07-27T04:53:10.972Z,15.70
2022-07-27T04:54:15.285Z,15.70
2022-07-27T04:55:18.621Z,15.70
2022-07-27T04:56:21.110Z,15.70
2022-07-27T04:57:24.440Z,15.80
2022-07-27T04:58:26.948Z,15.80
2022-07-27T04:59:32.422Z,15.80
2022-07-27T05:00:37.906Z,15.80
2022-07-27T05:01:41.307Z,15.90
2022-07-27T05:02:44.986Z,15.90
2022-07-27T05:03:48.512Z,15.90
2022-07-27T05:04:50.929Z,15.90
2022-07-27T05:05:54.937Z,16.00
2022-07-27T05:06:57.241Z,16.00
2022-07-27T05:08:03.878Z,16.00
2022-07-27T05:09:06.270Z,16.00
2022-07-27T05:10:16.525Z,16.00
2022-07-27T05:11:21.971Z,16.00
2022-07-27T05:12:25.201Z,16.00
2022-07-27T05:13:28.530Z,16.10
2022-07-27T05:14:30.915Z,16.10
2022-07-27T05:15:54.992Z,16.10
2022-07-27T05:16:56.515Z,16.10
2022-07-27T05:18:03.572Z,16.10
2022-07-27T05:19:06.032Z,16.20
2022-07-27T05:20:11.685Z,16.20
2022-07-27T05:21:14.057Z,16.30
2022-07-27T05:22:20.009Z,16.30
2022-07-27T05:23:22.227Z,16.40
2022-07-27T05:24:25.481Z,16.50
2022-07-27T05:25:30.568Z,16.60
2022-07-27T05:26:33.794Z,16.60
2022-07-27T05:27:37.455Z,16.70
2022-07-27T05:28:57.876Z,16.70
2022-07-27T05:30:00.199Z,16.80
2022-07-27T05:31:03.635Z,16.80
2022-07-27T05:32:06.939Z,16.90
2022-07-27T05:33:11.875Z,16.90
2022-07-27T05:34:14.220Z,16.90
2022-07-27T05:35:17.524Z,17.00
2022-07-27T05:36:19.842Z,17.00
2022-07-27T05:37:23.300Z,17.00
2022-07-27T05:38:27.012Z,17.00
2022-07-27T05:39:29.807Z,17.10
2022-07-27T05:40:33.220Z,17.10
2022-07-27T05:41:36.925Z,17.10
2022-07-27T05:42:42.918Z,17.20
2022-07-27T05:43:46.301Z,17.20
2022-07-27T05:44:48.664Z,17.20
2022-07-27T05:45:51.941Z,17.20
2022-07-27T05:46:54.282Z,17.20
2022-07-27T05:47:59.687Z,17.30
2022-07-27T05:49:03.817Z,17.40
2022-07-27T05:50:08.430Z,17.40
2022-07-27T05:51:10.918Z,17.40
2022-07-27T05:52:15.712Z,17.50
2022-07-27T05:53:18.289Z,17.70
2022-07-27T05:54:21.587Z,17.70
2022-07-27T05:55:24.877Z,17.90
2022-07-27T05:56:29.349Z,18.10
2022-07-27T05:57:32.781Z,18.20
2022-07-27T05:58:36.541Z,18.40
2022-07-27T05:59:38.998Z,18.60
2022-07-27T06:00:42.333Z,18.90
2022-07-27T06:01:44.839Z,19.10
2022-07-27T06:02:48.104Z,19.40
2022-07-27T06:03:50.545Z,19.50
2022-07-27T06:04:55.636Z,19.70
2022-07-27T06:06:12.835Z,19.80
2022-07-27T06:07:35.478Z,20.00
2022-07-27T06:08:38.792Z,20.20
2022-07-27T06:09:41.477Z,20.50
2022-07-27T06:10:44.959Z,20.80
2022-07-27T06:11:47.302Z,21.10
2022-07-27T06:12:50.649Z,21.40
2022-07-27T06:13:53.223Z,21.80
2022-07-27T06:14:56.474Z,22.10
2022-07-27T06:15:58.830Z,22.40
2022-07-27T06:17:02.128Z,22.60
2022-07-27T06:18:06.833Z,22.70
2022-07-27T06:19:09.615Z,22.90
2022-07-27T06:20:14.784Z,22.90
2022-07-27T06:21:19.875Z,23.00
2022-07-27T06:22:23.162Z,23.00
2022-07-27T06:23:29.174Z,23.00
2022-07-27T06:24:31.437Z,23.10
2022-07-27T06:25:35.734Z,23.20
2022-07-27T06:26:38.259Z,23.40
2022-07-27T06:27:41.713Z,23.70
2022-07-27T06:28:45.019Z,23.90
2022-07-27T06:29:48.424Z,24.20
2022-07-27T06:30:53.520Z,24.50
2022-07-27T06:31:56.139Z,24.80
2022-07-27T06:32:59.967Z,25.10
2022-07-27T06:34:03.925Z,25.40
2022-07-27T06:35:12.806Z,25.70
2022-07-27T06:36:16.505Z,25.90
2022-07-27T06:37:19.734Z,26.20
2022-07-27T06:38:25.115Z,26.40
2022-07-27T06:39:28.670Z,26.70
2022-07-27T06:41:34.934Z,27.10
2022-07-27T06:43:41.294Z,27.50
2022-07-27T06:44:44.884Z,27.60
2022-07-27T06:45:47.401Z,27.80
2022-07-27T06:46:50.982Z,28.00
2022-07-27T06:47:53.721Z,28.10
2022-07-27T06:48:57.121Z,28.30
2022-07-27T06:50:00.864Z,28.40
2022-07-27T06:51:03.225Z,28.50
2022-07-27T06:52:08.926Z,28.60
2022-07-27T06:53:11.364Z,28.70
2022-07-27T06:54:14.643Z,28.70
2022-07-27T06:55:17.149Z,28.80
2022-07-27T06:56:20.744Z,29.00
2022-07-27T06:57:23.994Z,29.00
2022-07-27T06:58:29.522Z,29.10
2022-07-27T06:59:43.497Z,29.20
2022-07-27T07:00:47.554Z,29.30
2022-07-27T07:02:55.814Z,29.50
2022-07-27T07:03:59.890Z,29.70
2022-07-27T07:05:03.287Z,29.80
2022-07-27T07:06:06.716Z,29.90
2022-07-27T07:07:10.494Z,30.00
2022-07-27T07:08:14.803Z,30.20
2022-07-27T07:09:17.537Z,30.30
2022-07-27T07:10:21.762Z,30.40
2022-07-27T07:11:29.487Z,30.60
2022-07-27T07:12:32.122Z,30.70
2022-07-27T07:13:39.218Z,30.80
2022-07-27T07:14:44.475Z,30.90
2022-07-27T07:15:47.991Z,31.00
2022-07-27T07:16:50.734Z,31.00
2022-07-27T07:17:54.682Z,31.10
2022-07-27T07:18:56.996Z,31.20
2022-07-27T07:20:00.552Z,31.30
2022-07-27T07:21:06.439Z,31.30
2022-07-27T07:22:13.364Z,31.30
2022-07-27T07:23:15.785Z,31.40
2022-07-27T07:25:22.022Z,31.60
2022-07-27T07:26:25.399Z,31.70
2022-07-27T07:27:28.514Z,31.90
2022-07-27T07:28:31.989Z,32.00
2022-07-27T07:29:35.436Z,32.20
2022-07-27T07:30:37.941Z,32.30
2022-07-27T07:31:43.983Z,32.50
2022-07-27T07:32:46.427Z,32.60
2022-07-27T07:33:49.743Z,32.70
2022-07-27T07:34:55.361Z,32.80
2022-07-27T07:36:12.412Z,33.00
2022-07-27T07:37:21.102Z,33.00
2022-07-27T07:38:28.185Z,33.20
2022-07-27T07:39:32.623Z,33.30
2022-07-27T07:40:44.852Z,33.40
2022-07-27T07:41:48.833Z,33.60
2022-07-27T07:42:53.781Z,33.70
2022-07-27T07:43:57.140Z,33.80
2022-07-27T07:44:59.459Z,33.90
2022-07-27T07:46:02.843Z,34.00
2022-07-27T07:47:06.202Z,34.10
2022-07-27T07:48:11.350Z,34.20
2022-07-27T07:49:15.098Z,34.30
2022-07-27T07:50:18.515Z,34.40
2022-07-27T07:51:24.410Z,34.60
2022-07-27T07:52:30.710Z,34.70
2022-07-27T07:53:39.172Z,34.90
2022-07-27T07:54:44.663Z,35.00
2022-07-27T07:55:47.023Z,35.20
2022-07-27T07:56:50.440Z,35.40
2022-07-27T07:57:54.902Z,35.50
2022-07-27T07:59:01.311Z,35.70
2022-07-27T08:00:06.608Z,35.80
2022-07-27T08:01:14.951Z,36.00
2022-07-27T08:02:17.603Z,36.10
2022-07-27T08:03:21.215Z,36.20
2022-07-27T08:04:23.742Z,36.30
2022-07-27T08:05:27.814Z,36.30
2022-07-27T08:06:30.278Z,36.40
2022-07-27T08:07:37.152Z,36.50
2022-07-27T08:08:40.535Z,36.60
2022-07-27T08:09:42.871Z,36.70
2022-07-27T08:10:46.278Z,36.80
2022-07-27T08:11:51.410Z,36.90
2022-07-27T08:12:56.895Z,36.90
2022-07-27T08:14:00.616Z,37.00
2022-07-27T08:15:03.182Z,37.00
2022-07-27T08:16:08.946Z,37.10
2022-07-27T08:17:11.304Z,37.10
2022-07-27T08:18:14.694Z,37.10
2022-07-27T08:19:17.983Z,37.10
2022-07-27T08:20:21.325Z,37.10
2022-07-27T08:21:24.805Z,37.10
2022-07-27T08:22:27.740Z,37.10
2022-07-27T08:23:32.583Z,37.20
2022-07-27T08:24:35.846Z,37.20
2022-07-27T08:25:39.425Z,37.30
2022-07-27T08:26:45.002Z,37.40
2022-07-27T08:27:47.668Z,37.40
2022-07-27T08:28:51.094Z,37.50
2022-07-27T08:29:53.843Z,37.50
2022-07-27T08:30:59.820Z,37.50
2022-07-27T08:32:16.591Z,37.50
2022-07-27T08:33:20.019Z,37.50
2022-07-27T08:34:22.396Z,37.50
2022-07-27T08:35:28.729Z,37.50
2022-07-27T08:36:32.049Z,37.60
2022-07-27T08:37:36.744Z,37.70
2022-07-27T08:38:41.362Z,37.80
2022-07-27T08:41:09.347Z,38.00
2022-07-27T08:42:15.007Z,38.20
2022-07-27T08:43:24.924Z,38.40
2022-07-27T08:44:30.861Z,38.50
2022-07-27T08:45:35.207Z,38.70
2022-07-27T08:46:40.654Z,38.80
2022-07-27T08:47:45.667Z,38.90
2022-07-27T08:48:49.796Z,39.00
2022-07-27T08:49:53.921Z,39.10
2022-07-27T08:50:58.076Z,39.30
2022-07-27T08:52:02.443Z,39.40
2022-07-27T08:53:10.936Z,39.50
2022-07-27T08:54:16.133Z,39.60
2022-07-27T08:55:18.916Z,39.70
2022-07-27T08:56:22.573Z,39.80
2022-07-27T08:57:28.382Z,39.80
2022-07-27T08:58:31.866Z,39.90
2022-07-27T08:59:36.127Z,40.00
2022-07-27T09:00:42.671Z,40.10
2022-07-27T09:01:48.154Z,40.10
2022-07-27T09:02:54.684Z,40.10
2022-07-27T09:03:58.026Z,40.10
2022-07-27T09:05:01.664Z,40.10
2022-07-27T09:06:06.485Z,40.10
2022-07-27T09:07:09.040Z,40.10
2022-07-27T09:08:15.393Z,40.10
2022-07-27T09:09:22.828Z,40.10
2022-07-27T09:10:33.571Z,40.20
2022-07-27T09:11:37.641Z,40.20
2022-07-27T09:12:42.180Z,40.30
2022-07-27T09:13:45.595Z,40.30
2022-07-27T09:14:53.063Z,40.40
2022-07-27T09:19:01.490Z,40.50
2022-07-27T09:20:08.601Z,40.50
2022-07-27T09:21:18.550Z,40.60
2022-07-27T09:22:41.139Z,40.60
2022-07-27T09:23:48.070Z,40.60
2022-07-27T09:25:04.918Z,40.70
2022-07-27T09:26:29.815Z,40.70
2022-07-27T09:27:38.078Z,40.70
2022-07-27T09:28:41.628Z,40.70
2022-07-27T09:29:45.231Z,40.70
2022-07-27T09:30:47.551Z,40.70
2022-07-27T09:31:54.098Z,40.70
2022-07-27T09:32:59.707Z,40.70
2022-07-27T09:34:04.607Z,40.70
2022-07-27T09:35:17.593Z,40.70
2022-07-27T09:36:25.395Z,40.70
2022-07-27T09:37:29.667Z,40.70
2022-07-27T09:38:32.144Z,40.80
2022-07-27T09:39:35.489Z,40.80
2022-07-27T09:40:40.294Z,40.90
2022-07-27T09:41:45.934Z,41.00
2022-07-27T09:43:12.501Z,41.00
2022-07-27T09:44:32.275Z,41.10
2022-07-27T09:45:43.273Z,41.10
2022-07-27T09:46:56.895Z,41.10
2022-07-27T09:48:16.767Z,41.10
2022-07-27T09:49:31.883Z,41.10
2022-07-27T09:50:36.053Z,41.20
2022-07-27T09:52:03.033Z,41.10
2022-07-27T09:53:41.535Z,41.10
2022-07-27T09:54:47.382Z,41.10
2022-07-27T09:56:03.729Z,41.10
2022-07-27T09:57:09.660Z,41.10
2022-07-27T09:58:15.543Z,41.20
2022-07-27T09:59:20.242Z,41.20
2022-07-27T10:00:23.801Z,41.20
2022-07-27T10:01:30.075Z,41.30
2022-07-27T10:02:32.916Z,41.40
2022-07-27T10:03:36.540Z,41.40
2022-07-27T10:04:39.970Z,41.50
2022-07-27T10:05:43.040Z,41.50
2022-07-27T10:07:01.600Z,41.50
2022-07-27T10:08:07.328Z,41.50
2022-07-27T10:09:10.787Z,41.50
2022-07-27T10:10:13.832Z,41.40
2022-07-27T10:11:20.832Z,41.40
2022-07-27T10:12:23.446Z,41.30
2022-07-27T10:13:27.387Z,41.20
2022-07-27T10:14:30.670Z,41.20
2022-07-27T10:15:33.437Z,41.20
2022-07-27T10:16:37.383Z,41.10
2022-07-27T10:17:42.168Z,41.10
2022-07-27T10:19:07.946Z,41.10
2022-07-27T10:20:14.236Z,41.10
2022-07-27T10:21:18.823Z,41.00
2022-07-27T10:22:56.646Z,41.00
2022-07-27T10:24:03.927Z,41.00
2022-07-27T10:25:07.524Z,41.00
2022-07-27T10:26:28.168Z,41.00
2022-07-27T10:27:31.738Z,41.00
2022-07-27T10:28:51.921Z,41.00
2022-07-27T10:29:57.101Z,40.90
2022-07-27T10:31:18.414Z,41.00
2022-07-27T10:32:31.095Z,40.90
2022-07-27T10:33:44.740Z,40.90
2022-07-27T10:34:48.114Z,40.90
2022-07-27T10:35:50.628Z,40.90
2022-07-27T10:36:56.245Z,40.80
2022-07-27T10:38:15.582Z,40.70
2022-07-27T10:39:38.145Z,40.60
2022-07-27T10:40:41.250Z,40.50
2022-07-27T10:41:46.033Z,40.50
2022-07-27T10:42:54.242Z,40.40
2022-07-27T10:44:30.092Z,40.40
2022-07-27T10:45:55.411Z,40.30
2022-07-27T10:47:05.995Z,40.40
2022-07-27T10:48:09.585Z,40.40
2022-07-27T10:49:20.200Z,40.40
2022-07-27T10:50:32.585Z,40.50
2022-07-27T10:51:36.825Z,40.40
2022-07-27T10:52:45.155Z,40.40
2022-07-27T10:54:22.735Z,40.30
2022-07-27T10:55:47.737Z,40.30
2022-07-27T10:56:54.912Z,40.20
2022-07-27T10:57:57.472Z,40.10
2022-07-27T10:59:00.719Z,40.10
2022-07-27T11:00:11.139Z,40.00
2022-07-27T11:01:20.022Z,40.00
2022-07-27T11:02:41.151Z,39.90
2022-07-27T11:03:55.302Z,39.80
2022-07-27T11:04:58.781Z,39.80
2022-07-27T11:06:30.791Z,39.80
2022-07-27T11:07:33.223Z,39.70
2022-07-27T11:08:47.366Z,39.50
2022-07-27T11:10:09.208Z,39.40
2022-07-27T11:11:16.659Z,39.30
2022-07-27T11:12:30.507Z,39.20
2022-07-27T11:13:38.735Z,39.10
2022-07-27T11:14:49.621Z,39.10
2022-07-27T11:15:59.723Z,39.00
2022-07-27T11:17:39.946Z,38.90
2022-07-27T11:18:32.497Z,38.90
2022-07-27T11:19:35.968Z,38.80
2022-07-27T11:20:38.410Z,38.80
2022-07-27T11:21:46.607Z,38.70
2022-07-27T11:23:40.680Z,38.70
2022-07-27T11:24:17.577Z,38.60
2022-07-27T11:25:20.158Z,38.50
2022-07-27T11:26:26.839Z,38.40
2022-07-27T11:27:31.875Z,38.20
2022-07-27T11:28:37.060Z,38.10
2022-07-27T11:29:43.737Z,38.00
2022-07-27T11:30:46.391Z,37.90
2022-07-27T11:31:56.027Z,37.90
2022-07-27T11:33:04.798Z,37.80
2022-07-27T11:34:08.875Z,37.80
2022-07-27T11:35:19.646Z,37.90
2022-07-27T11:36:35.326Z,37.90
2022-07-27T11:37:37.599Z,37.90
2022-07-27T11:38:48.295Z,37.80
2022-07-27T11:40:04.159Z,37.70
2022-07-27T11:41:24.093Z,37.60
2022-07-27T11:42:41.829Z,37.40
2022-07-27T11:43:45.770Z,37.10
2022-07-27T11:44:49.353Z,36.80
2022-07-27T11:45:53.736Z,36.50
2022-07-27T11:47:01.731Z,36.20
2022-07-27T11:48:10.556Z,35.80
2022-07-27T11:49:16.625Z,35.50
2022-07-27T11:50:18.938Z,35.20
2022-07-27T11:51:22.666Z,34.90
2022-07-27T11:52:28.195Z,34.70
2022-07-27T11:53:30.661Z,34.40
2022-07-27T11:54:36.645Z,34.10
2022-07-27T11:55:38.986Z,33.90
2022-07-27T11:56:46.134Z,33.60
2022-07-27T11:57:50.842Z,33.30
2022-07-27T11:59:12.962Z,33.10
2022-07-27T12:00:16.914Z,32.90
2022-07-27T12:01:28.793Z,32.70
2022-07-27T12:02:32.127Z,32.60
2022-07-27T12:03:46.297Z,32.50
2022-07-27T12:04:57.853Z,32.50
2022-07-27T12:06:04.792Z,32.60
2022-07-27T12:07:11.390Z,32.70
2022-07-27T12:08:14.382Z,32.80
2022-07-27T12:09:19.238Z,32.80
2022-07-27T12:10:22.997Z,32.90
2022-07-27T12:11:34.052Z,32.90
2022-07-27T12:12:39.193Z,32.90
2022-07-27T12:13:42.932Z,33.00
2022-07-27T12:14:48.906Z,32.90
2022-07-27T12:15:57.614Z,32.90
2022-07-27T12:17:16.279Z,32.80
2022-07-27T12:18:19.855Z,32.70
2022-07-27T12:19:24.136Z,32.60
2022-07-27T12:20:36.468Z,32.50
2022-07-27T12:21:38.890Z,32.40
2022-07-27T12:22:47.391Z,32.30
2022-07-27T12:23:52.534Z,32.20
2022-07-27T12:24:57.849Z,32.30
2022-07-27T12:26:19.346Z,32.30
2022-07-27T12:27:23.104Z,32.40
2022-07-27T12:28:27.879Z,32.50
2022-07-27T12:29:34.455Z,32.70
2022-07-27T12:30:41.203Z,32.80
2022-07-27T12:31:49.423Z,32.90
2022-07-27T12:32:55.614Z,33.00
2022-07-27T12:34:05.635Z,33.10
2022-07-27T12:35:26.609Z,33.10
2022-07-27T12:36:31.671Z,33.10
2022-07-27T12:37:42.460Z,33.00
2022-07-27T12:38:48.769Z,32.90
2022-07-27T12:39:51.507Z,32.80
2022-07-27T12:41:00.881Z,32.60
2022-07-27T12:42:05.974Z,32.50
2022-07-27T12:43:09.923Z,32.30
2022-07-27T12:44:15.653Z,32.10
2022-07-27T12:45:22.087Z,32.00
2022-07-27T12:46:24.399Z,31.80
2022-07-27T12:47:43.677Z,31.70
2022-07-27T12:48:47.718Z,31.70
2022-07-27T12:50:08.088Z,31.60
2022-07-27T12:51:12.372Z,31.70
2022-07-27T12:52:14.778Z,31.70
2022-07-27T12:53:20.657Z,31.70
2022-07-27T12:54:23.142Z,31.80
2022-07-27T12:55:26.811Z,31.80
2022-07-27T12:56:29.132Z,31.80
2022-07-27T12:57:54.525Z,31.80
2022-07-27T12:59:01.948Z,31.70
2022-07-27T13:00:07.735Z,31.60
2022-07-27T13:01:12.583Z,31.50
2022-07-27T13:02:15.932Z,31.40
2022-07-27T13:03:19.711Z,31.30
2022-07-27T13:04:22.301Z,31.20
2022-07-27T13:05:26.086Z,31.20
2022-07-27T13:06:30.128Z,31.10
2022-07-27T13:07:33.644Z,31.00
2022-07-27T13:08:37.016Z,31.00
2022-07-27T13:10:03.544Z,30.90
2022-07-27T13:11:04.924Z,30.80
2022-07-27T13:12:07.597Z,30.80
2022-07-27T13:13:13.737Z,30.70
2022-07-27T13:14:16.078Z,30.70
2022-07-27T13:15:20.586Z,30.60
2022-07-27T13:16:25.901Z,30.60
2022-07-27T13:17:29.415Z,30.60
2022-07-27T13:18:33.123Z,30.50
2022-07-27T13:19:35.528Z,30.50
2022-07-27T13:20:38.846Z,30.50
2022-07-27T13:21:41.314Z,30.50
2022-07-27T13:22:46.116Z,30.60
2022-07-27T13:23:52.204Z,30.60
2022-07-27T13:24:55.858Z,30.60
2022-07-27T13:25:59.192Z,30.70
2022-07-27T13:27:02.684Z,30.80
2022-07-27T13:28:06.492Z,30.80
2022-07-27T13:29:11.485Z,30.90
2022-07-27T13:30:18.754Z,31.00
2022-07-27T13:31:21.063Z,31.10
2022-07-27T13:32:26.425Z,31.20
2022-07-27T13:33:29.600Z,31.30
2022-07-27T13:34:33.267Z,31.30
2022-07-27T13:35:36.901Z,31.40
2022-07-27T13:36:40.899Z,31.40
2022-07-27T13:37:46.997Z,31.40
2022-07-27T13:38:49.373Z,31.40
2022-07-27T13:39:52.767Z,31.30
2022-07-27T13:40:55.051Z,31.20
2022-07-27T13:41:58.612Z,31.10
2022-07-27T13:43:01.904Z,31.00
2022-07-27T13:44:04.959Z,30.80
2022-07-27T13:46:15.289Z,30.60
2022-07-27T13:47:17.686Z,30.40
2022-07-27T13:48:24.617Z,30.30
2022-07-27T13:49:26.962Z,30.20
2022-07-27T13:50:30.457Z,30.10
2022-07-27T13:51:35.076Z,30.00
2022-07-27T13:52:38.990Z,29.90
2022-07-27T13:53:42.320Z,29.90
2022-07-27T13:54:45.671Z,29.90
2022-07-27T13:55:52.084Z,29.90
2022-07-27T13:56:55.521Z,29.90
2022-07-27T13:57:57.829Z,30.00
2022-07-27T13:59:04.917Z,30.00
2022-07-27T14:00:09.191Z,30.00
2022-07-27T14:01:13.074Z,30.00
2022-07-27T14:02:15.916Z,30.00
2022-07-27T14:03:27.684Z,30.00
2022-07-27T14:04:35.646Z,30.00
2022-07-27T14:05:41.965Z,29.90
2022-07-27T14:06:52.945Z,29.90
2022-07-27T14:07:57.772Z,29.80
2022-07-27T14:09:01.440Z,29.80
2022-07-27T14:10:22.714Z,29.80
2022-07-27T14:11:28.432Z,29.80
2022-07-27T14:12:32.475Z,29.80
2022-07-27T14:13:38.225Z,29.80
2022-07-27T14:14:40.781Z,29.80